<?xml version="1.0" encoding="UTF-8" standalone="no" ?>
<gpx xmlns="http://www.topografix.com/GPX/1/1" xmlns:xsi="http://www.w3.org/2001/XMLSchema-instance" xsi:schemaLocation="http://www.topografix.com/GPX/1/1 http://www.topografix.com/GPX/1/1/gpx.xsd" version="1.1" creator="VisuGPX - https://www.visugpx.com">
  <metadata>
    <name>ACTIVE LOG</name>
  </metadata>
  <trk>
    <name><![CDATA[ACTIVE LOG]]></name>
    <trkseg>
      <trkpt lat="45.35684" lon="5.7883">
        <ele>771.1147461</ele>
        <time>2012-01-22T08:20:35Z</time>
      </trkpt>
      <trkpt lat="45.35689" lon="5.78821">
        <ele>772.5566406</ele>
        <time>2012-01-22T08:21:21Z</time>
      </trkpt>
      <trkpt lat="45.35684" lon="5.78817">
        <ele>773.5180664</ele>
        <time>2012-01-22T08:22:10Z</time>
      </trkpt>
      <trkpt lat="45.35696" lon="5.78817">
        <ele>774.9599609</ele>
        <time>2012-01-22T08:22:38Z</time>
      </trkpt>
      <trkpt lat="45.3571" lon="5.78852">
        <ele>776.4018555</ele>
        <time>2012-01-22T08:23:06Z</time>
      </trkpt>
      <trkpt lat="45.35723" lon="5.78864">
        <ele>777.3632813</ele>
        <time>2012-01-22T08:23:20Z</time>
      </trkpt>
      <trkpt lat="45.35763" lon="5.78903">
        <ele>782.1699219</ele>
        <time>2012-01-22T08:24:22Z</time>
      </trkpt>
      <trkpt lat="45.35787" lon="5.78918">
        <ele>786.0151367</ele>
        <time>2012-01-22T08:25:01Z</time>
      </trkpt>
      <trkpt lat="45.35793" lon="5.78925">
        <ele>786.9763184</ele>
        <time>2012-01-22T08:25:14Z</time>
      </trkpt>
      <trkpt lat="45.35812" lon="5.78936">
        <ele>789.3796387</ele>
        <time>2012-01-22T08:25:36Z</time>
      </trkpt>
      <trkpt lat="45.35841" lon="5.78924">
        <ele>793.2248535</ele>
        <time>2012-01-22T08:26:11Z</time>
      </trkpt>
      <trkpt lat="45.35857" lon="5.78915">
        <ele>798.0317383</ele>
        <time>2012-01-22T08:26:49Z</time>
      </trkpt>
      <trkpt lat="45.3588" lon="5.78925">
        <ele>800.9155273</ele>
        <time>2012-01-22T08:27:17Z</time>
      </trkpt>
      <trkpt lat="45.35901" lon="5.78917">
        <ele>804.2802734</ele>
        <time>2012-01-22T08:27:51Z</time>
      </trkpt>
      <trkpt lat="45.35919" lon="5.78922">
        <ele>807.6447754</ele>
        <time>2012-01-22T08:28:19Z</time>
      </trkpt>
      <trkpt lat="45.35937" lon="5.7893">
        <ele>811.9707031</ele>
        <time>2012-01-22T08:28:52Z</time>
      </trkpt>
      <trkpt lat="45.35965" lon="5.78929">
        <ele>816.2966309</ele>
        <time>2012-01-22T08:29:28Z</time>
      </trkpt>
      <trkpt lat="45.35973" lon="5.78941">
        <ele>819.661377</ele>
        <time>2012-01-22T08:29:49Z</time>
      </trkpt>
      <trkpt lat="45.36018" lon="5.78966">
        <ele>824.4677734</ele>
        <time>2012-01-22T08:30:27Z</time>
      </trkpt>
      <trkpt lat="45.36027" lon="5.78979">
        <ele>827.8322754</ele>
        <time>2012-01-22T08:30:48Z</time>
      </trkpt>
      <trkpt lat="45.3604" lon="5.78991">
        <ele>831.1972656</ele>
        <time>2012-01-22T08:31:11Z</time>
      </trkpt>
      <trkpt lat="45.36061" lon="5.79011">
        <ele>835.5229492</ele>
        <time>2012-01-22T08:31:46Z</time>
      </trkpt>
      <trkpt lat="45.3607" lon="5.79019">
        <ele>838.4069824</ele>
        <time>2012-01-22T08:32:27Z</time>
      </trkpt>
      <trkpt lat="45.36096" lon="5.79029">
        <ele>843.6940918</ele>
        <time>2012-01-22T08:33:02Z</time>
      </trkpt>
      <trkpt lat="45.36115" lon="5.79035">
        <ele>847.5395508</ele>
        <time>2012-01-22T08:33:31Z</time>
      </trkpt>
      <trkpt lat="45.36144" lon="5.79042">
        <ele>849.9428711</ele>
        <time>2012-01-22T08:33:50Z</time>
      </trkpt>
      <trkpt lat="45.36169" lon="5.79062">
        <ele>852.8266602</ele>
        <time>2012-01-22T08:34:23Z</time>
      </trkpt>
      <trkpt lat="45.36197" lon="5.79064">
        <ele>857.1525879</ele>
        <time>2012-01-22T08:34:58Z</time>
      </trkpt>
      <trkpt lat="45.36224" lon="5.79064">
        <ele>860.9980469</ele>
        <time>2012-01-22T08:35:31Z</time>
      </trkpt>
      <trkpt lat="45.36246" lon="5.79076">
        <ele>864.3625488</ele>
        <time>2012-01-22T08:35:59Z</time>
      </trkpt>
      <trkpt lat="45.36265" lon="5.7911">
        <ele>868.6884766</ele>
        <time>2012-01-22T08:36:32Z</time>
      </trkpt>
      <trkpt lat="45.36287" lon="5.7912">
        <ele>873.0144043</ele>
        <time>2012-01-22T08:37:02Z</time>
      </trkpt>
      <trkpt lat="45.363" lon="5.79139">
        <ele>875.4174805</ele>
        <time>2012-01-22T08:37:41Z</time>
      </trkpt>
      <trkpt lat="45.36306" lon="5.79142">
        <ele>876.8598633</ele>
        <time>2012-01-22T08:38:10Z</time>
      </trkpt>
      <trkpt lat="45.36317" lon="5.79146">
        <ele>880.2243652</ele>
        <time>2012-01-22T08:38:33Z</time>
      </trkpt>
      <trkpt lat="45.36333" lon="5.79147">
        <ele>882.1469727</ele>
        <time>2012-01-22T08:38:49Z</time>
      </trkpt>
      <trkpt lat="45.36361" lon="5.79165">
        <ele>886.4729004</ele>
        <time>2012-01-22T08:39:26Z</time>
      </trkpt>
      <trkpt lat="45.36362" lon="5.79165">
        <ele>885.9921875</ele>
        <time>2012-01-22T08:39:28Z</time>
      </trkpt>
      <trkpt lat="45.36371" lon="5.79181">
        <ele>888.8762207</ele>
        <time>2012-01-22T08:39:46Z</time>
      </trkpt>
      <trkpt lat="45.36399" lon="5.79203">
        <ele>893.6828613</ele>
        <time>2012-01-22T08:40:20Z</time>
      </trkpt>
      <trkpt lat="45.36438" lon="5.79212">
        <ele>899.4506836</ele>
        <time>2012-01-22T08:40:57Z</time>
      </trkpt>
      <trkpt lat="45.36456" lon="5.79226">
        <ele>902.8151855</ele>
        <time>2012-01-22T08:41:17Z</time>
      </trkpt>
      <trkpt lat="45.36466" lon="5.79256">
        <ele>908.1027832</ele>
        <time>2012-01-22T08:41:52Z</time>
      </trkpt>
      <trkpt lat="45.36481" lon="5.79279">
        <ele>911.4672852</ele>
        <time>2012-01-22T08:42:19Z</time>
      </trkpt>
      <trkpt lat="45.36502" lon="5.79306">
        <ele>915.3125</ele>
        <time>2012-01-22T08:42:47Z</time>
      </trkpt>
      <trkpt lat="45.36517" lon="5.79291">
        <ele>916.7543945</ele>
        <time>2012-01-22T08:43:19Z</time>
      </trkpt>
      <trkpt lat="45.36523" lon="5.79302">
        <ele>919.1577148</ele>
        <time>2012-01-22T08:44:18Z</time>
      </trkpt>
      <trkpt lat="45.36547" lon="5.79322">
        <ele>923.4836426</ele>
        <time>2012-01-22T08:44:52Z</time>
      </trkpt>
      <trkpt lat="45.36585" lon="5.79343">
        <ele>927.8095703</ele>
        <time>2012-01-22T08:45:33Z</time>
      </trkpt>
      <trkpt lat="45.36618" lon="5.7935">
        <ele>931.1743164</ele>
        <time>2012-01-22T08:46:04Z</time>
      </trkpt>
      <trkpt lat="45.36619" lon="5.7935">
        <ele>931.1743164</ele>
        <time>2012-01-22T08:46:05Z</time>
      </trkpt>
      <trkpt lat="45.36653" lon="5.7935">
        <ele>932.6162109</ele>
        <time>2012-01-22T08:46:39Z</time>
      </trkpt>
      <trkpt lat="45.36675" lon="5.79339">
        <ele>935.5</ele>
        <time>2012-01-22T08:47:14Z</time>
      </trkpt>
      <trkpt lat="45.36697" lon="5.79329">
        <ele>939.8259277</ele>
        <time>2012-01-22T08:47:47Z</time>
      </trkpt>
      <trkpt lat="45.36725" lon="5.79326">
        <ele>945.1132813</ele>
        <time>2012-01-22T08:48:24Z</time>
      </trkpt>
      <trkpt lat="45.36749" lon="5.79319">
        <ele>949.9199219</ele>
        <time>2012-01-22T08:49:04Z</time>
      </trkpt>
      <trkpt lat="45.36778" lon="5.79327">
        <ele>953.2844238</ele>
        <time>2012-01-22T08:49:25Z</time>
      </trkpt>
      <trkpt lat="45.36795" lon="5.79338">
        <ele>958.0913086</ele>
        <time>2012-01-22T08:50:00Z</time>
      </trkpt>
      <trkpt lat="45.36826" lon="5.79348">
        <ele>963.378418</ele>
        <time>2012-01-22T08:50:37Z</time>
      </trkpt>
      <trkpt lat="45.36851" lon="5.79374">
        <ele>967.7041016</ele>
        <time>2012-01-22T08:51:09Z</time>
      </trkpt>
      <trkpt lat="45.36878" lon="5.79378">
        <ele>971.0688477</ele>
        <time>2012-01-22T08:51:41Z</time>
      </trkpt>
      <trkpt lat="45.36901" lon="5.79387">
        <ele>974.4335938</ele>
        <time>2012-01-22T08:52:26Z</time>
      </trkpt>
      <trkpt lat="45.36898" lon="5.79387">
        <ele>974.4335938</ele>
        <time>2012-01-22T08:52:31Z</time>
      </trkpt>
      <trkpt lat="45.36899" lon="5.79389">
        <ele>974.4335938</ele>
        <time>2012-01-22T08:53:07Z</time>
      </trkpt>
      <trkpt lat="45.36929" lon="5.79379">
        <ele>980.201416</ele>
        <time>2012-01-22T08:55:23Z</time>
      </trkpt>
      <trkpt lat="45.3696" lon="5.79375">
        <ele>985.0080566</ele>
        <time>2012-01-22T08:56:01Z</time>
      </trkpt>
      <trkpt lat="45.36993" lon="5.79379">
        <ele>989.8146973</ele>
        <time>2012-01-22T08:56:35Z</time>
      </trkpt>
      <trkpt lat="45.37006" lon="5.79354">
        <ele>994.140625</ele>
        <time>2012-01-22T08:57:03Z</time>
      </trkpt>
      <trkpt lat="45.3703" lon="5.79346">
        <ele>998.9470215</ele>
        <time>2012-01-22T08:57:41Z</time>
      </trkpt>
      <trkpt lat="45.37051" lon="5.79324">
        <ele>1004.7150879</ele>
        <time>2012-01-22T08:58:16Z</time>
      </trkpt>
      <trkpt lat="45.37073" lon="5.79312">
        <ele>1009.5217285</ele>
        <time>2012-01-22T08:58:52Z</time>
      </trkpt>
      <trkpt lat="45.3708" lon="5.79296">
        <ele>1012.8862305</ele>
        <time>2012-01-22T08:59:10Z</time>
      </trkpt>
      <trkpt lat="45.3711" lon="5.79287">
        <ele>1017.2121582</ele>
        <time>2012-01-22T08:59:42Z</time>
      </trkpt>
      <trkpt lat="45.37134" lon="5.79279">
        <ele>1021.5380859</ele>
        <time>2012-01-22T09:00:17Z</time>
      </trkpt>
      <trkpt lat="45.37147" lon="5.79276">
        <ele>1024.4221191</ele>
        <time>2012-01-22T09:00:39Z</time>
      </trkpt>
      <trkpt lat="45.37171" lon="5.79288">
        <ele>1027.7866211</ele>
        <time>2012-01-22T09:01:05Z</time>
      </trkpt>
      <trkpt lat="45.3719" lon="5.79295">
        <ele>1032.1125488</ele>
        <time>2012-01-22T09:01:33Z</time>
      </trkpt>
      <trkpt lat="45.37211" lon="5.79304">
        <ele>1037.3999023</ele>
        <time>2012-01-22T09:02:04Z</time>
      </trkpt>
      <trkpt lat="45.3722" lon="5.79316">
        <ele>1040.7644043</ele>
        <time>2012-01-22T09:02:22Z</time>
      </trkpt>
      <trkpt lat="45.37249" lon="5.79329">
        <ele>1046.0517578</ele>
        <time>2012-01-22T09:03:13Z</time>
      </trkpt>
      <trkpt lat="45.37271" lon="5.79357">
        <ele>1049.8969727</ele>
        <time>2012-01-22T09:03:45Z</time>
      </trkpt>
      <trkpt lat="45.37271" lon="5.79362">
        <ele>1049.8969727</ele>
        <time>2012-01-22T09:03:46Z</time>
      </trkpt>
      <trkpt lat="45.37275" lon="5.79368">
        <ele>1051.3388672</ele>
        <time>2012-01-22T09:03:59Z</time>
      </trkpt>
      <trkpt lat="45.37291" lon="5.79388">
        <ele>1056.1455078</ele>
        <time>2012-01-22T09:04:31Z</time>
      </trkpt>
      <trkpt lat="45.3731" lon="5.79417">
        <ele>1061.4328613</ele>
        <time>2012-01-22T09:05:03Z</time>
      </trkpt>
      <trkpt lat="45.37325" lon="5.79441">
        <ele>1067.6811523</ele>
        <time>2012-01-22T09:05:36Z</time>
      </trkpt>
      <trkpt lat="45.37341" lon="5.79463">
        <ele>1072.4880371</ele>
        <time>2012-01-22T09:06:06Z</time>
      </trkpt>
      <trkpt lat="45.37365" lon="5.79478">
        <ele>1078.2558594</ele>
        <time>2012-01-22T09:06:44Z</time>
      </trkpt>
      <trkpt lat="45.3739" lon="5.79488">
        <ele>1082.1010742</ele>
        <time>2012-01-22T09:07:15Z</time>
      </trkpt>
      <trkpt lat="45.37424" lon="5.79492">
        <ele>1085.9465332</ele>
        <time>2012-01-22T09:07:50Z</time>
      </trkpt>
      <trkpt lat="45.3746" lon="5.79513">
        <ele>1090.2724609</ele>
        <time>2012-01-22T09:08:33Z</time>
      </trkpt>
      <trkpt lat="45.37492" lon="5.79538">
        <ele>1095.0788574</ele>
        <time>2012-01-22T09:09:15Z</time>
      </trkpt>
      <trkpt lat="45.3752" lon="5.79547">
        <ele>1099.4047852</ele>
        <time>2012-01-22T09:09:51Z</time>
      </trkpt>
      <trkpt lat="45.3753" lon="5.79557">
        <ele>1102.7695313</ele>
        <time>2012-01-22T09:10:17Z</time>
      </trkpt>
      <trkpt lat="45.37546" lon="5.79589">
        <ele>1106.1340332</ele>
        <time>2012-01-22T09:10:36Z</time>
      </trkpt>
      <trkpt lat="45.37551" lon="5.79604">
        <ele>1112.3825684</ele>
        <time>2012-01-22T09:11:01Z</time>
      </trkpt>
      <trkpt lat="45.37559" lon="5.79636">
        <ele>1118.1506348</ele>
        <time>2012-01-22T09:11:35Z</time>
      </trkpt>
      <trkpt lat="45.3756" lon="5.79655">
        <ele>1122.9572754</ele>
        <time>2012-01-22T09:12:10Z</time>
      </trkpt>
      <trkpt lat="45.37563" lon="5.7966">
        <ele>1126.3217773</ele>
        <time>2012-01-22T09:12:26Z</time>
      </trkpt>
      <trkpt lat="45.37564" lon="5.79675">
        <ele>1129.6862793</ele>
        <time>2012-01-22T09:12:41Z</time>
      </trkpt>
      <trkpt lat="45.3756" lon="5.79682">
        <ele>1134.4931641</ele>
        <time>2012-01-22T09:15:48Z</time>
      </trkpt>
      <trkpt lat="45.37576" lon="5.79698">
        <ele>1140.7414551</ele>
        <time>2012-01-22T09:18:07Z</time>
      </trkpt>
      <trkpt lat="45.37598" lon="5.79721">
        <ele>1146.0288086</ele>
        <time>2012-01-22T09:18:46Z</time>
      </trkpt>
      <trkpt lat="45.37623" lon="5.79736">
        <ele>1151.3161621</ele>
        <time>2012-01-22T09:19:21Z</time>
      </trkpt>
      <trkpt lat="45.37629" lon="5.7975">
        <ele>1154.6806641</ele>
        <time>2012-01-22T09:19:38Z</time>
      </trkpt>
      <trkpt lat="45.37628" lon="5.79773">
        <ele>1159.4873047</ele>
        <time>2012-01-22T09:20:06Z</time>
      </trkpt>
      <trkpt lat="45.37634" lon="5.79803">
        <ele>1164.7746582</ele>
        <time>2012-01-22T09:20:43Z</time>
      </trkpt>
      <trkpt lat="45.37644" lon="5.79836">
        <ele>1169.5812988</ele>
        <time>2012-01-22T09:21:17Z</time>
      </trkpt>
      <trkpt lat="45.37661" lon="5.79856">
        <ele>1174.3876953</ele>
        <time>2012-01-22T09:21:56Z</time>
      </trkpt>
      <trkpt lat="45.37678" lon="5.79862">
        <ele>1179.6748047</ele>
        <time>2012-01-22T09:22:31Z</time>
      </trkpt>
      <trkpt lat="45.37704" lon="5.79885">
        <ele>1184.0009766</ele>
        <time>2012-01-22T09:23:11Z</time>
      </trkpt>
      <trkpt lat="45.37707" lon="5.79894">
        <ele>1186.4042969</ele>
        <time>2012-01-22T09:23:28Z</time>
      </trkpt>
      <trkpt lat="45.37723" lon="5.79906">
        <ele>1189.7687988</ele>
        <time>2012-01-22T09:23:51Z</time>
      </trkpt>
      <trkpt lat="45.37748" lon="5.79919">
        <ele>1194.5751953</ele>
        <time>2012-01-22T09:24:33Z</time>
      </trkpt>
      <trkpt lat="45.37758" lon="5.79924">
        <ele>1197.9401855</ele>
        <time>2012-01-22T09:24:49Z</time>
      </trkpt>
      <trkpt lat="45.37776" lon="5.79931">
        <ele>1201.3046875</ele>
        <time>2012-01-22T09:25:14Z</time>
      </trkpt>
      <trkpt lat="45.378" lon="5.79937">
        <ele>1206.111084</ele>
        <time>2012-01-22T09:25:56Z</time>
      </trkpt>
      <trkpt lat="45.37819" lon="5.79953">
        <ele>1211.8791504</ele>
        <time>2012-01-22T09:26:31Z</time>
      </trkpt>
      <trkpt lat="45.37842" lon="5.79958">
        <ele>1217.1665039</ele>
        <time>2012-01-22T09:27:06Z</time>
      </trkpt>
      <trkpt lat="45.37863" lon="5.79968">
        <ele>1221.0117188</ele>
        <time>2012-01-22T09:27:33Z</time>
      </trkpt>
      <trkpt lat="45.3788" lon="5.79997">
        <ele>1226.2988281</ele>
        <time>2012-01-22T09:28:09Z</time>
      </trkpt>
      <trkpt lat="45.37896" lon="5.80012">
        <ele>1229.6635742</ele>
        <time>2012-01-22T09:28:49Z</time>
      </trkpt>
      <trkpt lat="45.3791" lon="5.8003">
        <ele>1235.9121094</ele>
        <time>2012-01-22T09:29:17Z</time>
      </trkpt>
      <trkpt lat="45.37919" lon="5.80053">
        <ele>1241.1992188</ele>
        <time>2012-01-22T09:29:52Z</time>
      </trkpt>
      <trkpt lat="45.37924" lon="5.80062">
        <ele>1244.5639648</ele>
        <time>2012-01-22T09:30:10Z</time>
      </trkpt>
      <trkpt lat="45.37932" lon="5.8008">
        <ele>1247.9287109</ele>
        <time>2012-01-22T09:30:28Z</time>
      </trkpt>
      <trkpt lat="45.37934" lon="5.80105">
        <ele>1254.1772461</ele>
        <time>2012-01-22T09:31:08Z</time>
      </trkpt>
      <trkpt lat="45.37933" lon="5.80115">
        <ele>1257.541748</ele>
        <time>2012-01-22T09:31:26Z</time>
      </trkpt>
      <trkpt lat="45.37938" lon="5.80137">
        <ele>1263.7902832</ele>
        <time>2012-01-22T09:32:06Z</time>
      </trkpt>
      <trkpt lat="45.37938" lon="5.80157">
        <ele>1269.0776367</ele>
        <time>2012-01-22T09:32:42Z</time>
      </trkpt>
      <trkpt lat="45.37945" lon="5.80185">
        <ele>1275.3259277</ele>
        <time>2012-01-22T09:33:21Z</time>
      </trkpt>
      <trkpt lat="45.37954" lon="5.80212">
        <ele>1281.574707</ele>
        <time>2012-01-22T09:34:04Z</time>
      </trkpt>
      <trkpt lat="45.37964" lon="5.8023">
        <ele>1285.9006348</ele>
        <time>2012-01-22T09:34:35Z</time>
      </trkpt>
      <trkpt lat="45.37968" lon="5.80237">
        <ele>1287.8232422</ele>
        <time>2012-01-22T09:34:50Z</time>
      </trkpt>
      <trkpt lat="45.37956" lon="5.80262">
        <ele>1294.0720215</ele>
        <time>2012-01-22T09:35:30Z</time>
      </trkpt>
      <trkpt lat="45.3796" lon="5.80281">
        <ele>1299.3591309</ele>
        <time>2012-01-22T09:36:04Z</time>
      </trkpt>
      <trkpt lat="45.37974" lon="5.803">
        <ele>1304.1657715</ele>
        <time>2012-01-22T09:36:53Z</time>
      </trkpt>
      <trkpt lat="45.37982" lon="5.80321">
        <ele>1307.5302734</ele>
        <time>2012-01-22T09:37:27Z</time>
      </trkpt>
      <trkpt lat="45.37978" lon="5.80347">
        <ele>1311.3757324</ele>
        <time>2012-01-22T09:37:58Z</time>
      </trkpt>
      <trkpt lat="45.37983" lon="5.80361">
        <ele>1314.7402344</ele>
        <time>2012-01-22T09:38:21Z</time>
      </trkpt>
      <trkpt lat="45.37991" lon="5.8037">
        <ele>1318.1047363</ele>
        <time>2012-01-22T09:38:51Z</time>
      </trkpt>
      <trkpt lat="45.38007" lon="5.80384">
        <ele>1321.4692383</ele>
        <time>2012-01-22T09:39:28Z</time>
      </trkpt>
      <trkpt lat="45.38014" lon="5.80405">
        <ele>1324.8342285</ele>
        <time>2012-01-22T09:39:56Z</time>
      </trkpt>
      <trkpt lat="45.38023" lon="5.80417">
        <ele>1331.0827637</ele>
        <time>2012-01-22T09:40:40Z</time>
      </trkpt>
      <trkpt lat="45.38033" lon="5.80435">
        <ele>1336.369873</ele>
        <time>2012-01-22T09:41:29Z</time>
      </trkpt>
      <trkpt lat="45.38048" lon="5.80462">
        <ele>1340.215332</ele>
        <time>2012-01-22T09:42:03Z</time>
      </trkpt>
      <trkpt lat="45.38057" lon="5.8047">
        <ele>1342.6186523</ele>
        <time>2012-01-22T09:42:35Z</time>
      </trkpt>
      <trkpt lat="45.38072" lon="5.8047">
        <ele>1345.9831543</ele>
        <time>2012-01-22T09:43:08Z</time>
      </trkpt>
      <trkpt lat="45.38086" lon="5.80472">
        <ele>1351.7509766</ele>
        <time>2012-01-22T09:43:46Z</time>
      </trkpt>
      <trkpt lat="45.38099" lon="5.8046">
        <ele>1355.5961914</ele>
        <time>2012-01-22T09:44:18Z</time>
      </trkpt>
      <trkpt lat="45.38115" lon="5.80468">
        <ele>1360.8835449</ele>
        <time>2012-01-22T09:44:54Z</time>
      </trkpt>
      <trkpt lat="45.38137" lon="5.80475">
        <ele>1366.1706543</ele>
        <time>2012-01-22T09:45:37Z</time>
      </trkpt>
      <trkpt lat="45.38124" lon="5.80485">
        <ele>1369.5354004</ele>
        <time>2012-01-22T09:46:07Z</time>
      </trkpt>
      <trkpt lat="45.38104" lon="5.80503">
        <ele>1372.9001465</ele>
        <time>2012-01-22T09:46:37Z</time>
      </trkpt>
      <trkpt lat="45.38089" lon="5.80542">
        <ele>1376.2646484</ele>
        <time>2012-01-22T09:47:18Z</time>
      </trkpt>
      <trkpt lat="45.38075" lon="5.80566">
        <ele>1381.5517578</ele>
        <time>2012-01-22T09:47:59Z</time>
      </trkpt>
      <trkpt lat="45.38065" lon="5.80595">
        <ele>1385.8776855</ele>
        <time>2012-01-22T09:48:37Z</time>
      </trkpt>
      <trkpt lat="45.3807" lon="5.80628">
        <ele>1387.800293</ele>
        <time>2012-01-22T09:49:24Z</time>
      </trkpt>
      <trkpt lat="45.38072" lon="5.80621">
        <ele>1390.6843262</ele>
        <time>2012-01-22T09:52:04Z</time>
      </trkpt>
      <trkpt lat="45.38084" lon="5.80616">
        <ele>1394.0490723</ele>
        <time>2012-01-22T09:52:28Z</time>
      </trkpt>
      <trkpt lat="45.38102" lon="5.80612">
        <ele>1398.8554688</ele>
        <time>2012-01-22T09:52:59Z</time>
      </trkpt>
      <trkpt lat="45.38114" lon="5.80628">
        <ele>1404.6235352</ele>
        <time>2012-01-22T09:53:33Z</time>
      </trkpt>
      <trkpt lat="45.38118" lon="5.80629">
        <ele>1410.3913574</ele>
        <time>2012-01-22T09:54:09Z</time>
      </trkpt>
      <trkpt lat="45.38127" lon="5.80609">
        <ele>1416.1591797</ele>
        <time>2012-01-22T09:54:43Z</time>
      </trkpt>
      <trkpt lat="45.38131" lon="5.80615">
        <ele>1419.5239258</ele>
        <time>2012-01-22T09:55:00Z</time>
      </trkpt>
      <trkpt lat="45.38132" lon="5.8064">
        <ele>1425.291748</ele>
        <time>2012-01-22T09:55:35Z</time>
      </trkpt>
      <trkpt lat="45.38134" lon="5.8066">
        <ele>1430.0983887</ele>
        <time>2012-01-22T09:56:06Z</time>
      </trkpt>
      <trkpt lat="45.38129" lon="5.80693">
        <ele>1435.8662109</ele>
        <time>2012-01-22T09:56:43Z</time>
      </trkpt>
      <trkpt lat="45.38143" lon="5.80718">
        <ele>1440.6728516</ele>
        <time>2012-01-22T09:57:21Z</time>
      </trkpt>
      <trkpt lat="45.38155" lon="5.80729">
        <ele>1444.0375977</ele>
        <time>2012-01-22T09:57:39Z</time>
      </trkpt>
      <trkpt lat="45.38159" lon="5.80745">
        <ele>1450.2861328</ele>
        <time>2012-01-22T09:58:14Z</time>
      </trkpt>
      <trkpt lat="45.38177" lon="5.80759">
        <ele>1453.6508789</ele>
        <time>2012-01-22T09:58:36Z</time>
      </trkpt>
      <trkpt lat="45.3818" lon="5.80791">
        <ele>1459.8991699</ele>
        <time>2012-01-22T09:59:13Z</time>
      </trkpt>
      <trkpt lat="45.38188" lon="5.80805">
        <ele>1463.7443848</ele>
        <time>2012-01-22T09:59:45Z</time>
      </trkpt>
      <trkpt lat="45.38201" lon="5.80828">
        <ele>1467.1091309</ele>
        <time>2012-01-22T10:00:33Z</time>
      </trkpt>
      <trkpt lat="45.38195" lon="5.80878">
        <ele>1473.3579102</ele>
        <time>2012-01-22T10:01:16Z</time>
      </trkpt>
      <trkpt lat="45.38177" lon="5.80907">
        <ele>1479.1254883</ele>
        <time>2012-01-22T10:01:53Z</time>
      </trkpt>
      <trkpt lat="45.3816" lon="5.80924">
        <ele>1483.9321289</ele>
        <time>2012-01-22T10:02:23Z</time>
      </trkpt>
      <trkpt lat="45.38167" lon="5.80922">
        <ele>1487.296875</ele>
        <time>2012-01-22T10:02:43Z</time>
      </trkpt>
      <trkpt lat="45.38176" lon="5.80942">
        <ele>1492.1035156</ele>
        <time>2012-01-22T10:03:15Z</time>
      </trkpt>
      <trkpt lat="45.38166" lon="5.8097">
        <ele>1497.390625</ele>
        <time>2012-01-22T10:03:49Z</time>
      </trkpt>
      <trkpt lat="45.38171" lon="5.80979">
        <ele>1500.7553711</ele>
        <time>2012-01-22T10:04:09Z</time>
      </trkpt>
      <trkpt lat="45.38145" lon="5.80983">
        <ele>1506.5231934</ele>
        <time>2012-01-22T10:04:46Z</time>
      </trkpt>
      <trkpt lat="45.38126" lon="5.80989">
        <ele>1512.2910156</ele>
        <time>2012-01-22T10:05:19Z</time>
      </trkpt>
      <trkpt lat="45.38114" lon="5.80989">
        <ele>1515.6557617</ele>
        <time>2012-01-22T10:05:39Z</time>
      </trkpt>
      <trkpt lat="45.38093" lon="5.80989">
        <ele>1521.9042969</ele>
        <time>2012-01-22T10:06:17Z</time>
      </trkpt>
      <trkpt lat="45.38102" lon="5.8099">
        <ele>1526.2302246</ele>
        <time>2012-01-22T10:06:52Z</time>
      </trkpt>
      <trkpt lat="45.38113" lon="5.81006">
        <ele>1529.5947266</ele>
        <time>2012-01-22T10:07:13Z</time>
      </trkpt>
      <trkpt lat="45.38119" lon="5.81022">
        <ele>1534.4016113</ele>
        <time>2012-01-22T10:07:44Z</time>
      </trkpt>
      <trkpt lat="45.38124" lon="5.81033">
        <ele>1537.7661133</ele>
        <time>2012-01-22T10:08:01Z</time>
      </trkpt>
      <trkpt lat="45.38122" lon="5.81041">
        <ele>1540.1694336</ele>
        <time>2012-01-22T10:08:16Z</time>
      </trkpt>
      <trkpt lat="45.38124" lon="5.81042">
        <ele>1540.1694336</ele>
        <time>2012-01-22T10:08:17Z</time>
      </trkpt>
      <trkpt lat="45.38126" lon="5.8105">
        <ele>1543.5339355</ele>
        <time>2012-01-22T10:08:36Z</time>
      </trkpt>
      <trkpt lat="45.38129" lon="5.81059">
        <ele>1547.8598633</ele>
        <time>2012-01-22T10:09:04Z</time>
      </trkpt>
      <trkpt lat="45.38134" lon="5.81081">
        <ele>1549.7827148</ele>
        <time>2012-01-22T10:09:18Z</time>
      </trkpt>
      <trkpt lat="45.38135" lon="5.81085">
        <ele>1551.7053223</ele>
        <time>2012-01-22T10:09:33Z</time>
      </trkpt>
      <trkpt lat="45.38148" lon="5.81102">
        <ele>1555.5505371</ele>
        <time>2012-01-22T10:10:00Z</time>
      </trkpt>
      <trkpt lat="45.38139" lon="5.81121">
        <ele>1559.395752</ele>
        <time>2012-01-22T10:10:27Z</time>
      </trkpt>
      <trkpt lat="45.38147" lon="5.81126">
        <ele>1562.279541</ele>
        <time>2012-01-22T10:10:46Z</time>
      </trkpt>
      <trkpt lat="45.3816" lon="5.81133">
        <ele>1566.125</ele>
        <time>2012-01-22T10:11:12Z</time>
      </trkpt>
      <trkpt lat="45.38176" lon="5.81129">
        <ele>1571.8928223</ele>
        <time>2012-01-22T10:11:50Z</time>
      </trkpt>
      <trkpt lat="45.38178" lon="5.8111">
        <ele>1574.2961426</ele>
        <time>2012-01-22T10:12:26Z</time>
      </trkpt>
      <trkpt lat="45.38185" lon="5.81113">
        <ele>1577.6606445</ele>
        <time>2012-01-22T10:13:07Z</time>
      </trkpt>
      <trkpt lat="45.38192" lon="5.81112">
        <ele>1581.0256348</ele>
        <time>2012-01-22T10:13:22Z</time>
      </trkpt>
      <trkpt lat="45.38192" lon="5.81114">
        <ele>1581.0256348</ele>
        <time>2012-01-22T10:13:31Z</time>
      </trkpt>
      <trkpt lat="45.38189" lon="5.81125">
        <ele>1584.3901367</ele>
        <time>2012-01-22T10:13:57Z</time>
      </trkpt>
      <trkpt lat="45.38199" lon="5.81125">
        <ele>1587.7546387</ele>
        <time>2012-01-22T10:14:27Z</time>
      </trkpt>
      <trkpt lat="45.38189" lon="5.81141">
        <ele>1592.0805664</ele>
        <time>2012-01-22T10:15:00Z</time>
      </trkpt>
      <trkpt lat="45.38175" lon="5.81154">
        <ele>1596.4067383</ele>
        <time>2012-01-22T10:15:36Z</time>
      </trkpt>
      <trkpt lat="45.3817" lon="5.81171">
        <ele>1600.7324219</ele>
        <time>2012-01-22T10:16:09Z</time>
      </trkpt>
      <trkpt lat="45.38187" lon="5.81177">
        <ele>1606.0195313</ele>
        <time>2012-01-22T10:16:42Z</time>
      </trkpt>
      <trkpt lat="45.38194" lon="5.81198">
        <ele>1609.8647461</ele>
        <time>2012-01-22T10:17:14Z</time>
      </trkpt>
      <trkpt lat="45.38204" lon="5.81219">
        <ele>1613.2297363</ele>
        <time>2012-01-22T10:17:45Z</time>
      </trkpt>
      <trkpt lat="45.38218" lon="5.81243">
        <ele>1617.0749512</ele>
        <time>2012-01-22T10:18:23Z</time>
      </trkpt>
      <trkpt lat="45.38222" lon="5.81254">
        <ele>1620.4394531</ele>
        <time>2012-01-22T10:18:42Z</time>
      </trkpt>
      <trkpt lat="45.38231" lon="5.81268">
        <ele>1623.3234863</ele>
        <time>2012-01-22T10:19:50Z</time>
      </trkpt>
      <trkpt lat="45.38234" lon="5.81271">
        <ele>1623.3234863</ele>
        <time>2012-01-22T10:20:08Z</time>
      </trkpt>
      <trkpt lat="45.38246" lon="5.81269">
        <ele>1624.7653809</ele>
        <time>2012-01-22T10:23:03Z</time>
      </trkpt>
      <trkpt lat="45.38267" lon="5.81257">
        <ele>1630.0527344</ele>
        <time>2012-01-22T10:23:43Z</time>
      </trkpt>
      <trkpt lat="45.38277" lon="5.81254">
        <ele>1633.8979492</ele>
        <time>2012-01-22T10:24:15Z</time>
      </trkpt>
      <trkpt lat="45.38294" lon="5.81249">
        <ele>1639.1850586</ele>
        <time>2012-01-22T10:24:47Z</time>
      </trkpt>
      <trkpt lat="45.38304" lon="5.81242">
        <ele>1642.5498047</ele>
        <time>2012-01-22T10:25:08Z</time>
      </trkpt>
      <trkpt lat="45.38314" lon="5.81236">
        <ele>1646.8757324</ele>
        <time>2012-01-22T10:25:35Z</time>
      </trkpt>
      <trkpt lat="45.38323" lon="5.81231">
        <ele>1651.682373</ele>
        <time>2012-01-22T10:26:07Z</time>
      </trkpt>
      <trkpt lat="45.38335" lon="5.81223">
        <ele>1656.9694824</ele>
        <time>2012-01-22T10:26:35Z</time>
      </trkpt>
      <trkpt lat="45.38347" lon="5.8121">
        <ele>1662.2568359</ele>
        <time>2012-01-22T10:27:09Z</time>
      </trkpt>
      <trkpt lat="45.38362" lon="5.81202">
        <ele>1668.0246582</ele>
        <time>2012-01-22T10:27:43Z</time>
      </trkpt>
      <trkpt lat="45.38372" lon="5.81194">
        <ele>1672.8312988</ele>
        <time>2012-01-22T10:28:15Z</time>
      </trkpt>
      <trkpt lat="45.38385" lon="5.81189">
        <ele>1677.1574707</ele>
        <time>2012-01-22T10:28:50Z</time>
      </trkpt>
      <trkpt lat="45.38399" lon="5.81183">
        <ele>1681.4831543</ele>
        <time>2012-01-22T10:29:18Z</time>
      </trkpt>
      <trkpt lat="45.38416" lon="5.81172">
        <ele>1686.2897949</ele>
        <time>2012-01-22T10:29:52Z</time>
      </trkpt>
      <trkpt lat="45.38419" lon="5.81154">
        <ele>1692.5385742</ele>
        <time>2012-01-22T10:30:31Z</time>
      </trkpt>
      <trkpt lat="45.38428" lon="5.81146">
        <ele>1697.8256836</ele>
        <time>2012-01-22T10:30:59Z</time>
      </trkpt>
      <trkpt lat="45.38441" lon="5.81139">
        <ele>1701.6708984</ele>
        <time>2012-01-22T10:31:27Z</time>
      </trkpt>
      <trkpt lat="45.3845" lon="5.81134">
        <ele>1705.996582</ele>
        <time>2012-01-22T10:31:53Z</time>
      </trkpt>
      <trkpt lat="45.38467" lon="5.8113">
        <ele>1710.3227539</ele>
        <time>2012-01-22T10:32:56Z</time>
      </trkpt>
      <trkpt lat="45.38483" lon="5.81122">
        <ele>1714.1679688</ele>
        <time>2012-01-22T10:33:26Z</time>
      </trkpt>
      <trkpt lat="45.38495" lon="5.81111">
        <ele>1718.0131836</ele>
        <time>2012-01-22T10:33:56Z</time>
      </trkpt>
      <trkpt lat="45.38511" lon="5.81095">
        <ele>1721.8583984</ele>
        <time>2012-01-22T10:34:29Z</time>
      </trkpt>
      <trkpt lat="45.38524" lon="5.81086">
        <ele>1726.1845703</ele>
        <time>2012-01-22T10:34:56Z</time>
      </trkpt>
      <trkpt lat="45.38551" lon="5.81086">
        <ele>1730.9912109</ele>
        <time>2012-01-22T10:35:38Z</time>
      </trkpt>
      <trkpt lat="45.38585" lon="5.81075">
        <ele>1734.3557129</ele>
        <time>2012-01-22T10:36:28Z</time>
      </trkpt>
      <trkpt lat="45.38607" lon="5.81058">
        <ele>1738.2009277</ele>
        <time>2012-01-22T10:37:05Z</time>
      </trkpt>
      <trkpt lat="45.38608" lon="5.81058">
        <ele>1738.2009277</ele>
        <time>2012-01-22T10:37:06Z</time>
      </trkpt>
      <trkpt lat="45.3863" lon="5.81063">
        <ele>1735.7976074</ele>
        <time>2012-01-22T10:38:15Z</time>
      </trkpt>
      <trkpt lat="45.38631" lon="5.8106">
        <ele>1735.3168945</ele>
        <time>2012-01-22T10:42:26Z</time>
      </trkpt>
      <trkpt lat="45.38643" lon="5.8104">
        <ele>1731.9523926</ele>
        <time>2012-01-22T10:42:33Z</time>
      </trkpt>
      <trkpt lat="45.38654" lon="5.81025">
        <ele>1727.1459961</ele>
        <time>2012-01-22T10:42:37Z</time>
      </trkpt>
      <trkpt lat="45.38665" lon="5.81011">
        <ele>1723.7810059</ele>
        <time>2012-01-22T10:42:41Z</time>
      </trkpt>
      <trkpt lat="45.38679" lon="5.80987">
        <ele>1718.4938965</ele>
        <time>2012-01-22T10:42:51Z</time>
      </trkpt>
      <trkpt lat="45.38686" lon="5.80976">
        <ele>1715.1293945</ele>
        <time>2012-01-22T10:42:59Z</time>
      </trkpt>
      <trkpt lat="45.38702" lon="5.80948">
        <ele>1708.8808594</ele>
        <time>2012-01-22T10:43:08Z</time>
      </trkpt>
      <trkpt lat="45.38711" lon="5.80918">
        <ele>1702.6320801</ele>
        <time>2012-01-22T10:43:17Z</time>
      </trkpt>
      <trkpt lat="45.38719" lon="5.80863">
        <ele>1699.748291</ele>
        <time>2012-01-22T10:43:47Z</time>
      </trkpt>
      <trkpt lat="45.38724" lon="5.80809">
        <ele>1705.5161133</ele>
        <time>2012-01-22T10:44:28Z</time>
      </trkpt>
      <trkpt lat="45.38723" lon="5.80789">
        <ele>1708.8808594</ele>
        <time>2012-01-22T10:44:46Z</time>
      </trkpt>
      <trkpt lat="45.38718" lon="5.80761">
        <ele>1712.7260742</ele>
        <time>2012-01-22T10:45:16Z</time>
      </trkpt>
      <trkpt lat="45.38714" lon="5.80743">
        <ele>1716.5712891</ele>
        <time>2012-01-22T10:45:36Z</time>
      </trkpt>
      <trkpt lat="45.38712" lon="5.80733">
        <ele>1719.935791</ele>
        <time>2012-01-22T10:45:52Z</time>
      </trkpt>
      <trkpt lat="45.38709" lon="5.80713">
        <ele>1726.1845703</ele>
        <time>2012-01-22T10:46:22Z</time>
      </trkpt>
      <trkpt lat="45.38707" lon="5.80701">
        <ele>1729.5490723</ele>
        <time>2012-01-22T10:46:40Z</time>
      </trkpt>
      <trkpt lat="45.38704" lon="5.80679">
        <ele>1735.7976074</ele>
        <time>2012-01-22T10:47:13Z</time>
      </trkpt>
      <trkpt lat="45.38712" lon="5.80672">
        <ele>1739.6428223</ele>
        <time>2012-01-22T10:47:44Z</time>
      </trkpt>
      <trkpt lat="45.38724" lon="5.80658">
        <ele>1743.9689941</ele>
        <time>2012-01-22T10:48:12Z</time>
      </trkpt>
      <trkpt lat="45.38733" lon="5.80647">
        <ele>1747.814209</ele>
        <time>2012-01-22T10:48:38Z</time>
      </trkpt>
      <trkpt lat="45.38746" lon="5.80629">
        <ele>1751.6594238</ele>
        <time>2012-01-22T10:49:15Z</time>
      </trkpt>
      <trkpt lat="45.38754" lon="5.80596">
        <ele>1755.0239258</ele>
        <time>2012-01-22T10:49:55Z</time>
      </trkpt>
      <trkpt lat="45.38775" lon="5.80545">
        <ele>1760.3112793</ele>
        <time>2012-01-22T10:50:54Z</time>
      </trkpt>
      <trkpt lat="45.38785" lon="5.80533">
        <ele>1763.6757813</ele>
        <time>2012-01-22T10:51:14Z</time>
      </trkpt>
      <trkpt lat="45.38788" lon="5.80524">
        <ele>1765.5986328</ele>
        <time>2012-01-22T10:51:57Z</time>
      </trkpt>
      <trkpt lat="45.38789" lon="5.80529">
        <ele>1764.637207</ele>
        <time>2012-01-22T10:54:04Z</time>
      </trkpt>
      <trkpt lat="45.38787" lon="5.8053">
        <ele>1764.637207</ele>
        <time>2012-01-22T10:55:03Z</time>
      </trkpt>
      <trkpt lat="45.38779" lon="5.80546">
        <ele>1760.3112793</ele>
        <time>2012-01-22T10:55:09Z</time>
      </trkpt>
      <trkpt lat="45.38771" lon="5.8056">
        <ele>1756.4660645</ele>
        <time>2012-01-22T10:55:12Z</time>
      </trkpt>
      <trkpt lat="45.38764" lon="5.80604">
        <ele>1750.2175293</ele>
        <time>2012-01-22T10:55:24Z</time>
      </trkpt>
      <trkpt lat="45.38765" lon="5.80619">
        <ele>1746.8527832</ele>
        <time>2012-01-22T10:55:27Z</time>
      </trkpt>
      <trkpt lat="45.38761" lon="5.80637">
        <ele>1743.9689941</ele>
        <time>2012-01-22T10:55:38Z</time>
      </trkpt>
      <trkpt lat="45.38754" lon="5.80663">
        <ele>1738.2009277</ele>
        <time>2012-01-22T10:55:47Z</time>
      </trkpt>
      <trkpt lat="45.38737" lon="5.80685">
        <ele>1733.3942871</ele>
        <time>2012-01-22T10:55:57Z</time>
      </trkpt>
      <trkpt lat="45.38724" lon="5.80697">
        <ele>1730.0297852</ele>
        <time>2012-01-22T10:56:05Z</time>
      </trkpt>
      <trkpt lat="45.38697" lon="5.80722">
        <ele>1725.2231445</ele>
        <time>2012-01-22T10:56:24Z</time>
      </trkpt>
      <trkpt lat="45.38695" lon="5.80722">
        <ele>1724.2619629</ele>
        <time>2012-01-22T10:56:27Z</time>
      </trkpt>
      <trkpt lat="45.38695" lon="5.80727">
        <ele>1719.4553223</ele>
        <time>2012-01-22T10:56:30Z</time>
      </trkpt>
      <trkpt lat="45.38697" lon="5.8073">
        <ele>1718.9746094</ele>
        <time>2012-01-22T10:56:31Z</time>
      </trkpt>
      <trkpt lat="45.38706" lon="5.80741">
        <ele>1715.6101074</ele>
        <time>2012-01-22T10:56:38Z</time>
      </trkpt>
      <trkpt lat="45.38716" lon="5.80755">
        <ele>1711.2841797</ele>
        <time>2012-01-22T10:56:43Z</time>
      </trkpt>
      <trkpt lat="45.38721" lon="5.80768">
        <ele>1709.3615723</ele>
        <time>2012-01-22T10:56:46Z</time>
      </trkpt>
      <trkpt lat="45.38722" lon="5.80837">
        <ele>1702.6320801</ele>
        <time>2012-01-22T10:56:58Z</time>
      </trkpt>
      <trkpt lat="45.38719" lon="5.80868">
        <ele>1700.2290039</ele>
        <time>2012-01-22T10:57:12Z</time>
      </trkpt>
      <trkpt lat="45.38719" lon="5.80869">
        <ele>1701.1901855</ele>
        <time>2012-01-22T10:57:44Z</time>
      </trkpt>
      <trkpt lat="45.3871" lon="5.80912">
        <ele>1704.0742188</ele>
        <time>2012-01-22T10:58:25Z</time>
      </trkpt>
      <trkpt lat="45.38704" lon="5.80929">
        <ele>1707.4387207</ele>
        <time>2012-01-22T10:58:39Z</time>
      </trkpt>
      <trkpt lat="45.38693" lon="5.80955">
        <ele>1713.2067871</ele>
        <time>2012-01-22T10:59:08Z</time>
      </trkpt>
      <trkpt lat="45.38686" lon="5.80971">
        <ele>1716.5712891</ele>
        <time>2012-01-22T10:59:28Z</time>
      </trkpt>
      <trkpt lat="45.3867" lon="5.80992">
        <ele>1721.8583984</ele>
        <time>2012-01-22T11:00:02Z</time>
      </trkpt>
      <trkpt lat="45.38653" lon="5.81012">
        <ele>1727.6264648</ele>
        <time>2012-01-22T11:00:34Z</time>
      </trkpt>
      <trkpt lat="45.38637" lon="5.81029">
        <ele>1733.875</ele>
        <time>2012-01-22T11:01:09Z</time>
      </trkpt>
      <trkpt lat="45.38633" lon="5.81057">
        <ele>1737.7202148</ele>
        <time>2012-01-22T11:02:15Z</time>
      </trkpt>
      <trkpt lat="45.38628" lon="5.81062">
        <ele>1737.7202148</ele>
        <time>2012-01-22T11:03:17Z</time>
      </trkpt>
      <trkpt lat="45.38629" lon="5.81064">
        <ele>1741.5656738</ele>
        <time>2012-01-22T11:08:27Z</time>
      </trkpt>
      <trkpt lat="45.38629" lon="5.81064">
        <ele>1728.5878906</ele>
        <time>2012-01-22T11:08:29Z</time>
      </trkpt>
      <trkpt lat="45.38629" lon="5.81064">
        <ele>1729.5490723</ele>
        <time>2012-01-22T11:08:30Z</time>
      </trkpt>
      <trkpt lat="45.38629" lon="5.81064">
        <ele>1736.7587891</ele>
        <time>2012-01-22T11:08:31Z</time>
      </trkpt>
      <trkpt lat="45.38628" lon="5.81061">
        <ele>1740.1237793</ele>
        <time>2012-01-22T11:08:33Z</time>
      </trkpt>
      <trkpt lat="45.38627" lon="5.8106">
        <ele>1729.5490723</ele>
        <time>2012-01-22T11:08:34Z</time>
      </trkpt>
      <trkpt lat="45.38627" lon="5.8106">
        <ele>1742.5270996</ele>
        <time>2012-01-22T11:08:35Z</time>
      </trkpt>
      <trkpt lat="45.38628" lon="5.81062">
        <ele>1739.1621094</ele>
        <time>2012-01-22T11:08:43Z</time>
      </trkpt>
      <trkpt lat="45.38628" lon="5.81063">
        <ele>1740.1237793</ele>
        <time>2012-01-22T11:10:59Z</time>
      </trkpt>
      <trkpt lat="45.38626" lon="5.81065">
        <ele>1740.1237793</ele>
        <time>2012-01-22T11:13:54Z</time>
      </trkpt>
      <trkpt lat="45.38609" lon="5.81079">
        <ele>1733.875</ele>
        <time>2012-01-22T11:14:00Z</time>
      </trkpt>
      <trkpt lat="45.38586" lon="5.81106">
        <ele>1727.6264648</ele>
        <time>2012-01-22T11:14:06Z</time>
      </trkpt>
      <trkpt lat="45.38573" lon="5.8112">
        <ele>1723.7810059</ele>
        <time>2012-01-22T11:14:10Z</time>
      </trkpt>
      <trkpt lat="45.38554" lon="5.81143">
        <ele>1720.4165039</ele>
        <time>2012-01-22T11:14:23Z</time>
      </trkpt>
      <trkpt lat="45.38542" lon="5.81145">
        <ele>1718.4938965</ele>
        <time>2012-01-22T11:14:38Z</time>
      </trkpt>
      <trkpt lat="45.38524" lon="5.81142">
        <ele>1714.1679688</ele>
        <time>2012-01-22T11:14:45Z</time>
      </trkpt>
      <trkpt lat="45.38516" lon="5.81136">
        <ele>1710.3227539</ele>
        <time>2012-01-22T11:14:48Z</time>
      </trkpt>
      <trkpt lat="45.3851" lon="5.8114">
        <ele>1710.3227539</ele>
        <time>2012-01-22T11:14:53Z</time>
      </trkpt>
      <trkpt lat="45.38498" lon="5.81149">
        <ele>1706.9580078</ele>
        <time>2012-01-22T11:14:59Z</time>
      </trkpt>
      <trkpt lat="45.3848" lon="5.81173">
        <ele>1700.7094727</ele>
        <time>2012-01-22T11:15:08Z</time>
      </trkpt>
      <trkpt lat="45.38465" lon="5.81197">
        <ele>1697.3449707</ele>
        <time>2012-01-22T11:15:16Z</time>
      </trkpt>
      <trkpt lat="45.3845" lon="5.81202">
        <ele>1693.019043</ele>
        <time>2012-01-22T11:15:22Z</time>
      </trkpt>
      <trkpt lat="45.38446" lon="5.81203">
        <ele>1693.019043</ele>
        <time>2012-01-22T11:15:23Z</time>
      </trkpt>
      <trkpt lat="45.3843" lon="5.81204">
        <ele>1689.173584</ele>
        <time>2012-01-22T11:15:28Z</time>
      </trkpt>
      <trkpt lat="45.38428" lon="5.81217">
        <ele>1683.8864746</ele>
        <time>2012-01-22T11:15:33Z</time>
      </trkpt>
      <trkpt lat="45.38422" lon="5.81218">
        <ele>1680.5219727</ele>
        <time>2012-01-22T11:15:35Z</time>
      </trkpt>
      <trkpt lat="45.38401" lon="5.81212">
        <ele>1676.6767578</ele>
        <time>2012-01-22T11:15:42Z</time>
      </trkpt>
      <trkpt lat="45.38379" lon="5.81214">
        <ele>1671.3891602</ele>
        <time>2012-01-22T11:15:49Z</time>
      </trkpt>
      <trkpt lat="45.38366" lon="5.81215">
        <ele>1667.5439453</ele>
        <time>2012-01-22T11:15:52Z</time>
      </trkpt>
      <trkpt lat="45.38352" lon="5.81217">
        <ele>1662.7375488</ele>
        <time>2012-01-22T11:15:55Z</time>
      </trkpt>
      <trkpt lat="45.38338" lon="5.8122">
        <ele>1659.3728027</ele>
        <time>2012-01-22T11:15:58Z</time>
      </trkpt>
      <trkpt lat="45.3832" lon="5.81224">
        <ele>1653.1242676</ele>
        <time>2012-01-22T11:16:02Z</time>
      </trkpt>
      <trkpt lat="45.38306" lon="5.81228">
        <ele>1649.7597656</ele>
        <time>2012-01-22T11:16:05Z</time>
      </trkpt>
      <trkpt lat="45.3829" lon="5.81232">
        <ele>1645.9145508</ele>
        <time>2012-01-22T11:16:09Z</time>
      </trkpt>
      <trkpt lat="45.38272" lon="5.81232">
        <ele>1641.107666</ele>
        <time>2012-01-22T11:16:14Z</time>
      </trkpt>
      <trkpt lat="45.38254" lon="5.81219">
        <ele>1636.7817383</ele>
        <time>2012-01-22T11:16:21Z</time>
      </trkpt>
      <trkpt lat="45.38245" lon="5.81205">
        <ele>1632.9365234</ele>
        <time>2012-01-22T11:16:26Z</time>
      </trkpt>
      <trkpt lat="45.38228" lon="5.81182">
        <ele>1626.6879883</ele>
        <time>2012-01-22T11:16:33Z</time>
      </trkpt>
      <trkpt lat="45.38212" lon="5.81165">
        <ele>1621.8813477</ele>
        <time>2012-01-22T11:16:42Z</time>
      </trkpt>
      <trkpt lat="45.38202" lon="5.81171">
        <ele>1617.0749512</ele>
        <time>2012-01-22T11:16:45Z</time>
      </trkpt>
      <trkpt lat="45.38196" lon="5.81174">
        <ele>1616.1135254</ele>
        <time>2012-01-22T11:16:47Z</time>
      </trkpt>
      <trkpt lat="45.38189" lon="5.81178">
        <ele>1615.1523438</ele>
        <time>2012-01-22T11:16:49Z</time>
      </trkpt>
      <trkpt lat="45.3818" lon="5.81174">
        <ele>1612.2683105</ele>
        <time>2012-01-22T11:17:31Z</time>
      </trkpt>
      <trkpt lat="45.38181" lon="5.81172">
        <ele>1611.7875977</ele>
        <time>2012-01-22T11:17:37Z</time>
      </trkpt>
      <trkpt lat="45.38183" lon="5.81169">
        <ele>1611.3068848</ele>
        <time>2012-01-22T11:17:39Z</time>
      </trkpt>
      <trkpt lat="45.38196" lon="5.81148">
        <ele>1607.4616699</ele>
        <time>2012-01-22T11:17:44Z</time>
      </trkpt>
      <trkpt lat="45.38189" lon="5.81138">
        <ele>1604.097168</ele>
        <time>2012-01-22T11:17:46Z</time>
      </trkpt>
      <trkpt lat="45.38186" lon="5.8112">
        <ele>1597.8486328</ele>
        <time>2012-01-22T11:17:49Z</time>
      </trkpt>
      <trkpt lat="45.38188" lon="5.81115">
        <ele>1597.8486328</ele>
        <time>2012-01-22T11:17:50Z</time>
      </trkpt>
      <trkpt lat="45.38192" lon="5.81101">
        <ele>1594.0031738</ele>
        <time>2012-01-22T11:17:53Z</time>
      </trkpt>
      <trkpt lat="45.3819" lon="5.81095">
        <ele>1594.9643555</ele>
        <time>2012-01-22T11:17:54Z</time>
      </trkpt>
      <trkpt lat="45.38184" lon="5.8109">
        <ele>1589.1965332</ele>
        <time>2012-01-22T11:17:57Z</time>
      </trkpt>
      <trkpt lat="45.38183" lon="5.81089">
        <ele>1589.1965332</ele>
        <time>2012-01-22T11:17:58Z</time>
      </trkpt>
      <trkpt lat="45.38179" lon="5.81084">
        <ele>1582.4675293</ele>
        <time>2012-01-22T11:18:14Z</time>
      </trkpt>
      <trkpt lat="45.38174" lon="5.8108">
        <ele>1577.6606445</ele>
        <time>2012-01-22T11:18:18Z</time>
      </trkpt>
      <trkpt lat="45.38181" lon="5.8108">
        <ele>1575.2573242</ele>
        <time>2012-01-22T11:18:35Z</time>
      </trkpt>
      <trkpt lat="45.38182" lon="5.81079">
        <ele>1575.2573242</ele>
        <time>2012-01-22T11:18:46Z</time>
      </trkpt>
      <trkpt lat="45.3818" lon="5.81077">
        <ele>1574.2961426</ele>
        <time>2012-01-22T11:18:48Z</time>
      </trkpt>
      <trkpt lat="45.38183" lon="5.81069">
        <ele>1569.9702148</ele>
        <time>2012-01-22T11:18:50Z</time>
      </trkpt>
      <trkpt lat="45.38184" lon="5.81058">
        <ele>1565.6445313</ele>
        <time>2012-01-22T11:18:54Z</time>
      </trkpt>
      <trkpt lat="45.38193" lon="5.81045">
        <ele>1557.9538574</ele>
        <time>2012-01-22T11:19:01Z</time>
      </trkpt>
      <trkpt lat="45.3819" lon="5.81039">
        <ele>1553.1472168</ele>
        <time>2012-01-22T11:19:04Z</time>
      </trkpt>
      <trkpt lat="45.38187" lon="5.8103">
        <ele>1552.6665039</ele>
        <time>2012-01-22T11:19:13Z</time>
      </trkpt>
      <trkpt lat="45.38196" lon="5.81018">
        <ele>1548.8212891</ele>
        <time>2012-01-22T11:19:19Z</time>
      </trkpt>
      <trkpt lat="45.38201" lon="5.81013">
        <ele>1544.9758301</ele>
        <time>2012-01-22T11:19:21Z</time>
      </trkpt>
      <trkpt lat="45.38207" lon="5.80986">
        <ele>1538.2468262</ele>
        <time>2012-01-22T11:19:25Z</time>
      </trkpt>
      <trkpt lat="45.38206" lon="5.80977">
        <ele>1533.9208984</ele>
        <time>2012-01-22T11:19:27Z</time>
      </trkpt>
      <trkpt lat="45.38208" lon="5.80956">
        <ele>1527.6721191</ele>
        <time>2012-01-22T11:19:31Z</time>
      </trkpt>
      <trkpt lat="45.38205" lon="5.80958">
        <ele>1525.7495117</ele>
        <time>2012-01-22T11:19:44Z</time>
      </trkpt>
      <trkpt lat="45.38205" lon="5.80967">
        <ele>1525.2687988</ele>
        <time>2012-01-22T11:20:02Z</time>
      </trkpt>
      <trkpt lat="45.38209" lon="5.80957">
        <ele>1520.9431152</ele>
        <time>2012-01-22T11:20:06Z</time>
      </trkpt>
      <trkpt lat="45.3821" lon="5.80954">
        <ele>1520.9431152</ele>
        <time>2012-01-22T11:20:15Z</time>
      </trkpt>
      <trkpt lat="45.3822" lon="5.8094">
        <ele>1517.0979004</ele>
        <time>2012-01-22T11:20:25Z</time>
      </trkpt>
      <trkpt lat="45.38229" lon="5.80927">
        <ele>1513.7329102</ele>
        <time>2012-01-22T11:20:29Z</time>
      </trkpt>
      <trkpt lat="45.38237" lon="5.80911">
        <ele>1509.4072266</ele>
        <time>2012-01-22T11:20:34Z</time>
      </trkpt>
      <trkpt lat="45.38233" lon="5.80907">
        <ele>1506.5231934</ele>
        <time>2012-01-22T11:20:39Z</time>
      </trkpt>
      <trkpt lat="45.38234" lon="5.80894">
        <ele>1503.1586914</ele>
        <time>2012-01-22T11:20:44Z</time>
      </trkpt>
      <trkpt lat="45.38227" lon="5.80901">
        <ele>1501.236084</ele>
        <time>2012-01-22T11:20:59Z</time>
      </trkpt>
      <trkpt lat="45.38221" lon="5.80912">
        <ele>1497.390625</ele>
        <time>2012-01-22T11:21:26Z</time>
      </trkpt>
      <trkpt lat="45.38207" lon="5.80906">
        <ele>1492.5842285</ele>
        <time>2012-01-22T11:21:37Z</time>
      </trkpt>
      <trkpt lat="45.38212" lon="5.80889">
        <ele>1488.2583008</ele>
        <time>2012-01-22T11:21:58Z</time>
      </trkpt>
      <trkpt lat="45.3821" lon="5.80889">
        <ele>1489.7001953</ele>
        <time>2012-01-22T11:22:52Z</time>
      </trkpt>
      <trkpt lat="45.38198" lon="5.80888">
        <ele>1491.1420898</ele>
        <time>2012-01-22T11:23:56Z</time>
      </trkpt>
      <trkpt lat="45.38166" lon="5.80893">
        <ele>1490.661377</ele>
        <time>2012-01-22T11:24:30Z</time>
      </trkpt>
      <trkpt lat="45.38174" lon="5.80862">
        <ele>1485.8549805</ele>
        <time>2012-01-22T11:24:47Z</time>
      </trkpt>
      <trkpt lat="45.3817" lon="5.80841">
        <ele>1480.567627</ele>
        <time>2012-01-22T11:24:53Z</time>
      </trkpt>
      <trkpt lat="45.38173" lon="5.80826">
        <ele>1473.8383789</ele>
        <time>2012-01-22T11:25:00Z</time>
      </trkpt>
      <trkpt lat="45.38187" lon="5.80809">
        <ele>1475.2802734</ele>
        <time>2012-01-22T11:25:10Z</time>
      </trkpt>
      <trkpt lat="45.38192" lon="5.80776">
        <ele>1476.2416992</ele>
        <time>2012-01-22T11:25:27Z</time>
      </trkpt>
      <trkpt lat="45.38189" lon="5.80759">
        <ele>1472.3964844</ele>
        <time>2012-01-22T11:25:31Z</time>
      </trkpt>
      <trkpt lat="45.38194" lon="5.80752">
        <ele>1469.0319824</ele>
        <time>2012-01-22T11:25:35Z</time>
      </trkpt>
      <trkpt lat="45.38195" lon="5.80748">
        <ele>1465.1865234</ele>
        <time>2012-01-22T11:25:37Z</time>
      </trkpt>
      <trkpt lat="45.3819" lon="5.80735">
        <ele>1461.3413086</ele>
        <time>2012-01-22T11:25:40Z</time>
      </trkpt>
      <trkpt lat="45.38182" lon="5.8072">
        <ele>1457.4960938</ele>
        <time>2012-01-22T11:25:42Z</time>
      </trkpt>
      <trkpt lat="45.3818" lon="5.80707">
        <ele>1453.170166</ele>
        <time>2012-01-22T11:25:45Z</time>
      </trkpt>
      <trkpt lat="45.3816" lon="5.80683">
        <ele>1449.8054199</ele>
        <time>2012-01-22T11:25:49Z</time>
      </trkpt>
      <trkpt lat="45.38149" lon="5.8064">
        <ele>1448.8439941</ele>
        <time>2012-01-22T11:26:03Z</time>
      </trkpt>
      <trkpt lat="45.38151" lon="5.80614">
        <ele>1444.9987793</ele>
        <time>2012-01-22T11:26:07Z</time>
      </trkpt>
      <trkpt lat="45.38152" lon="5.80598">
        <ele>1442.1149902</ele>
        <time>2012-01-22T11:26:10Z</time>
      </trkpt>
      <trkpt lat="45.3814" lon="5.80588">
        <ele>1442.5957031</ele>
        <time>2012-01-22T11:26:19Z</time>
      </trkpt>
      <trkpt lat="45.38129" lon="5.80562">
        <ele>1438.2697754</ele>
        <time>2012-01-22T11:26:24Z</time>
      </trkpt>
      <trkpt lat="45.3812" lon="5.80558">
        <ele>1434.9050293</ele>
        <time>2012-01-22T11:26:30Z</time>
      </trkpt>
      <trkpt lat="45.38112" lon="5.80558">
        <ele>1431.0598145</ele>
        <time>2012-01-22T11:26:33Z</time>
      </trkpt>
      <trkpt lat="45.38104" lon="5.8055">
        <ele>1425.291748</ele>
        <time>2012-01-22T11:26:37Z</time>
      </trkpt>
      <trkpt lat="45.38098" lon="5.80538">
        <ele>1420.0046387</ele>
        <time>2012-01-22T11:26:41Z</time>
      </trkpt>
      <trkpt lat="45.38084" lon="5.80536">
        <ele>1414.7172852</ele>
        <time>2012-01-22T11:26:44Z</time>
      </trkpt>
      <trkpt lat="45.38064" lon="5.80539">
        <ele>1409.4301758</ele>
        <time>2012-01-22T11:26:53Z</time>
      </trkpt>
      <trkpt lat="45.3807" lon="5.8052">
        <ele>1409.4301758</ele>
        <time>2012-01-22T11:27:22Z</time>
      </trkpt>
      <trkpt lat="45.3807" lon="5.8052">
        <ele>1410.8720703</ele>
        <time>2012-01-22T11:28:15Z</time>
      </trkpt>
      <trkpt lat="45.38069" lon="5.80513">
        <ele>1405.5849609</ele>
        <time>2012-01-22T11:28:18Z</time>
      </trkpt>
      <trkpt lat="45.38089" lon="5.80469">
        <ele>1398.8554688</ele>
        <time>2012-01-22T11:28:24Z</time>
      </trkpt>
      <trkpt lat="45.38096" lon="5.80448">
        <ele>1395.4909668</ele>
        <time>2012-01-22T11:28:26Z</time>
      </trkpt>
      <trkpt lat="45.38128" lon="5.80397">
        <ele>1390.2038574</ele>
        <time>2012-01-22T11:28:35Z</time>
      </trkpt>
      <trkpt lat="45.38135" lon="5.80398">
        <ele>1389.2424316</ele>
        <time>2012-01-22T11:28:45Z</time>
      </trkpt>
      <trkpt lat="45.38132" lon="5.80409">
        <ele>1389.2424316</ele>
        <time>2012-01-22T11:29:05Z</time>
      </trkpt>
      <trkpt lat="45.38091" lon="5.80394">
        <ele>1384.435791</ele>
        <time>2012-01-22T11:29:10Z</time>
      </trkpt>
      <trkpt lat="45.38071" lon="5.80381">
        <ele>1378.6679688</ele>
        <time>2012-01-22T11:29:19Z</time>
      </trkpt>
      <trkpt lat="45.38067" lon="5.80372">
        <ele>1374.342041</ele>
        <time>2012-01-22T11:29:24Z</time>
      </trkpt>
      <trkpt lat="45.38067" lon="5.80363">
        <ele>1367.6125488</ele>
        <time>2012-01-22T11:29:33Z</time>
      </trkpt>
      <trkpt lat="45.38059" lon="5.80353">
        <ele>1366.1706543</ele>
        <time>2012-01-22T11:29:48Z</time>
      </trkpt>
      <trkpt lat="45.38046" lon="5.80345">
        <ele>1360.402832</ele>
        <time>2012-01-22T11:30:43Z</time>
      </trkpt>
      <trkpt lat="45.38035" lon="5.8033">
        <ele>1357.519043</ele>
        <time>2012-01-22T11:30:46Z</time>
      </trkpt>
      <trkpt lat="45.38035" lon="5.80324">
        <ele>1355.5961914</ele>
        <time>2012-01-22T11:30:50Z</time>
      </trkpt>
      <trkpt lat="45.3803" lon="5.80314">
        <ele>1347.9057617</ele>
        <time>2012-01-22T11:30:56Z</time>
      </trkpt>
      <trkpt lat="45.38024" lon="5.80302">
        <ele>1341.1765137</ele>
        <time>2012-01-22T11:31:00Z</time>
      </trkpt>
      <trkpt lat="45.38024" lon="5.80302">
        <ele>1341.6572266</ele>
        <time>2012-01-22T11:31:01Z</time>
      </trkpt>
      <trkpt lat="45.38022" lon="5.80298">
        <ele>1340.6958008</ele>
        <time>2012-01-22T11:31:07Z</time>
      </trkpt>
      <trkpt lat="45.37989" lon="5.80272">
        <ele>1335.4084473</ele>
        <time>2012-01-22T11:31:11Z</time>
      </trkpt>
      <trkpt lat="45.37969" lon="5.80259">
        <ele>1332.0439453</ele>
        <time>2012-01-22T11:31:13Z</time>
      </trkpt>
      <trkpt lat="45.37946" lon="5.80249">
        <ele>1333.005127</ele>
        <time>2012-01-22T11:31:20Z</time>
      </trkpt>
      <trkpt lat="45.37946" lon="5.80244">
        <ele>1330.1213379</ele>
        <time>2012-01-22T11:31:26Z</time>
      </trkpt>
      <trkpt lat="45.37952" lon="5.8025">
        <ele>1330.1213379</ele>
        <time>2012-01-22T11:31:40Z</time>
      </trkpt>
      <trkpt lat="45.3795" lon="5.80234">
        <ele>1330.6020508</ele>
        <time>2012-01-22T11:32:36Z</time>
      </trkpt>
      <trkpt lat="45.3795" lon="5.80224">
        <ele>1324.3535156</ele>
        <time>2012-01-22T11:32:40Z</time>
      </trkpt>
      <trkpt lat="45.37955" lon="5.80199">
        <ele>1318.5854492</ele>
        <time>2012-01-22T11:32:44Z</time>
      </trkpt>
      <trkpt lat="45.37958" lon="5.80189">
        <ele>1314.7402344</ele>
        <time>2012-01-22T11:32:46Z</time>
      </trkpt>
      <trkpt lat="45.37964" lon="5.80178">
        <ele>1307.5302734</ele>
        <time>2012-01-22T11:32:49Z</time>
      </trkpt>
      <trkpt lat="45.37965" lon="5.8016">
        <ele>1298.878418</ele>
        <time>2012-01-22T11:32:54Z</time>
      </trkpt>
      <trkpt lat="45.37967" lon="5.80111">
        <ele>1291.668457</ele>
        <time>2012-01-22T11:32:58Z</time>
      </trkpt>
      <trkpt lat="45.37966" lon="5.80078">
        <ele>1285.4199219</ele>
        <time>2012-01-22T11:33:03Z</time>
      </trkpt>
      <trkpt lat="45.37955" lon="5.80049">
        <ele>1279.1713867</ele>
        <time>2012-01-22T11:33:11Z</time>
      </trkpt>
      <trkpt lat="45.3794" lon="5.79988">
        <ele>1276.7683105</ele>
        <time>2012-01-22T11:33:26Z</time>
      </trkpt>
      <trkpt lat="45.37931" lon="5.79961">
        <ele>1273.4035645</ele>
        <time>2012-01-22T11:36:05Z</time>
      </trkpt>
      <trkpt lat="45.37914" lon="5.79935">
        <ele>1265.2324219</ele>
        <time>2012-01-22T11:36:14Z</time>
      </trkpt>
      <trkpt lat="45.37893" lon="5.79911">
        <ele>1260.4257813</ele>
        <time>2012-01-22T11:36:19Z</time>
      </trkpt>
      <trkpt lat="45.37876" lon="5.79888">
        <ele>1256.0996094</ele>
        <time>2012-01-22T11:36:25Z</time>
      </trkpt>
      <trkpt lat="45.37864" lon="5.79885">
        <ele>1252.2543945</ele>
        <time>2012-01-22T11:36:28Z</time>
      </trkpt>
      <trkpt lat="45.37857" lon="5.79881">
        <ele>1251.2932129</ele>
        <time>2012-01-22T11:36:29Z</time>
      </trkpt>
      <trkpt lat="45.37834" lon="5.79865">
        <ele>1248.4091797</ele>
        <time>2012-01-22T11:36:33Z</time>
      </trkpt>
      <trkpt lat="45.37813" lon="5.79847">
        <ele>1245.0446777</ele>
        <time>2012-01-22T11:36:37Z</time>
      </trkpt>
      <trkpt lat="45.37791" lon="5.79826">
        <ele>1240.2380371</ele>
        <time>2012-01-22T11:36:41Z</time>
      </trkpt>
      <trkpt lat="45.37771" lon="5.79807">
        <ele>1234.4702148</ele>
        <time>2012-01-22T11:36:45Z</time>
      </trkpt>
      <trkpt lat="45.37749" lon="5.79785">
        <ele>1230.625</ele>
        <time>2012-01-22T11:36:48Z</time>
      </trkpt>
      <trkpt lat="45.37726" lon="5.7977">
        <ele>1227.2602539</ele>
        <time>2012-01-22T11:36:51Z</time>
      </trkpt>
      <trkpt lat="45.37702" lon="5.79746">
        <ele>1221.0117188</ele>
        <time>2012-01-22T11:36:55Z</time>
      </trkpt>
      <trkpt lat="45.37677" lon="5.79721">
        <ele>1217.1665039</ele>
        <time>2012-01-22T11:36:59Z</time>
      </trkpt>
      <trkpt lat="45.37651" lon="5.79698">
        <ele>1213.3212891</ele>
        <time>2012-01-22T11:37:04Z</time>
      </trkpt>
      <trkpt lat="45.37631" lon="5.79678">
        <ele>1209.4758301</ele>
        <time>2012-01-22T11:37:07Z</time>
      </trkpt>
      <trkpt lat="45.37611" lon="5.7966">
        <ele>1205.6306152</ele>
        <time>2012-01-22T11:37:10Z</time>
      </trkpt>
      <trkpt lat="45.3759" lon="5.7965">
        <ele>1203.2272949</ele>
        <time>2012-01-22T11:37:13Z</time>
      </trkpt>
      <trkpt lat="45.37576" lon="5.79663">
        <ele>1203.7080078</ele>
        <time>2012-01-22T11:37:18Z</time>
      </trkpt>
      <trkpt lat="45.37577" lon="5.79673">
        <ele>1203.7080078</ele>
        <time>2012-01-22T11:37:40Z</time>
      </trkpt>
      <trkpt lat="45.37577" lon="5.79672">
        <ele>1200.3435059</ele>
        <time>2012-01-22T11:37:50Z</time>
      </trkpt>
      <trkpt lat="45.37576" lon="5.79673">
        <ele>1196.9787598</ele>
        <time>2012-01-22T11:37:53Z</time>
      </trkpt>
      <trkpt lat="45.37577" lon="5.79678">
        <ele>1193.6140137</ele>
        <time>2012-01-22T11:37:57Z</time>
      </trkpt>
      <trkpt lat="45.37581" lon="5.79686">
        <ele>1190.2495117</ele>
        <time>2012-01-22T11:38:00Z</time>
      </trkpt>
      <trkpt lat="45.37585" lon="5.79689">
        <ele>1186.4042969</ele>
        <time>2012-01-22T11:38:02Z</time>
      </trkpt>
      <trkpt lat="45.37586" lon="5.79691">
        <ele>1182.559082</ele>
        <time>2012-01-22T11:38:05Z</time>
      </trkpt>
      <trkpt lat="45.37584" lon="5.79694">
        <ele>1179.1940918</ele>
        <time>2012-01-22T11:38:07Z</time>
      </trkpt>
      <trkpt lat="45.37574" lon="5.79696">
        <ele>1174.3876953</ele>
        <time>2012-01-22T11:38:11Z</time>
      </trkpt>
      <trkpt lat="45.37569" lon="5.79695">
        <ele>1171.0231934</ele>
        <time>2012-01-22T11:38:14Z</time>
      </trkpt>
      <trkpt lat="45.37558" lon="5.79693">
        <ele>1164.2939453</ele>
        <time>2012-01-22T11:38:19Z</time>
      </trkpt>
      <trkpt lat="45.37548" lon="5.7968">
        <ele>1160.9291992</ele>
        <time>2012-01-22T11:38:22Z</time>
      </trkpt>
      <trkpt lat="45.37533" lon="5.7967">
        <ele>1155.6420898</ele>
        <time>2012-01-22T11:38:24Z</time>
      </trkpt>
      <trkpt lat="45.37517" lon="5.79662">
        <ele>1143.6254883</ele>
        <time>2012-01-22T11:39:05Z</time>
      </trkpt>
      <trkpt lat="45.37477" lon="5.79484">
        <ele>1140.7414551</ele>
        <time>2012-01-22T11:39:31Z</time>
      </trkpt>
      <trkpt lat="45.37456" lon="5.7947">
        <ele>1136.8962402</ele>
        <time>2012-01-22T11:39:39Z</time>
      </trkpt>
      <trkpt lat="45.37409" lon="5.79445">
        <ele>1130.6477051</ele>
        <time>2012-01-22T11:39:53Z</time>
      </trkpt>
      <trkpt lat="45.37371" lon="5.79425">
        <ele>1124.8798828</ele>
        <time>2012-01-22T11:40:02Z</time>
      </trkpt>
      <trkpt lat="45.37355" lon="5.79418">
        <ele>1121.5151367</ele>
        <time>2012-01-22T11:40:06Z</time>
      </trkpt>
      <trkpt lat="45.37343" lon="5.79413">
        <ele>1117.6699219</ele>
        <time>2012-01-22T11:40:09Z</time>
      </trkpt>
      <trkpt lat="45.37334" lon="5.79408">
        <ele>1114.3051758</ele>
        <time>2012-01-22T11:40:12Z</time>
      </trkpt>
      <trkpt lat="45.37321" lon="5.79411">
        <ele>1108.0568848</ele>
        <time>2012-01-22T11:40:16Z</time>
      </trkpt>
      <trkpt lat="45.37302" lon="5.79413">
        <ele>1103.2502441</ele>
        <time>2012-01-22T11:40:21Z</time>
      </trkpt>
      <trkpt lat="45.3729" lon="5.79401">
        <ele>1099.4047852</ele>
        <time>2012-01-22T11:40:24Z</time>
      </trkpt>
      <trkpt lat="45.37264" lon="5.79371">
        <ele>1095.0788574</ele>
        <time>2012-01-22T11:40:29Z</time>
      </trkpt>
      <trkpt lat="45.37232" lon="5.7933">
        <ele>1091.2336426</ele>
        <time>2012-01-22T11:40:35Z</time>
      </trkpt>
      <trkpt lat="45.37202" lon="5.79309">
        <ele>1086.9077148</ele>
        <time>2012-01-22T11:40:40Z</time>
      </trkpt>
      <trkpt lat="45.37174" lon="5.79295">
        <ele>1080.6591797</ele>
        <time>2012-01-22T11:40:44Z</time>
      </trkpt>
      <trkpt lat="45.37155" lon="5.79281">
        <ele>1075.8525391</ele>
        <time>2012-01-22T11:40:47Z</time>
      </trkpt>
      <trkpt lat="45.37117" lon="5.79282">
        <ele>1070.0847168</ele>
        <time>2012-01-22T11:40:52Z</time>
      </trkpt>
      <trkpt lat="45.37095" lon="5.79286">
        <ele>1066.2392578</ele>
        <time>2012-01-22T11:40:56Z</time>
      </trkpt>
      <trkpt lat="45.37082" lon="5.79296">
        <ele>1062.394043</ele>
        <time>2012-01-22T11:40:59Z</time>
      </trkpt>
      <trkpt lat="45.3705" lon="5.79324">
        <ele>1054.2231445</ele>
        <time>2012-01-22T11:41:04Z</time>
      </trkpt>
      <trkpt lat="45.37022" lon="5.79341">
        <ele>1047.9743652</ele>
        <time>2012-01-22T11:41:08Z</time>
      </trkpt>
      <trkpt lat="45.37007" lon="5.79351">
        <ele>1044.1291504</ele>
        <time>2012-01-22T11:41:11Z</time>
      </trkpt>
      <trkpt lat="45.36985" lon="5.79358">
        <ele>1040.7644043</ele>
        <time>2012-01-22T11:41:14Z</time>
      </trkpt>
      <trkpt lat="45.36962" lon="5.79347">
        <ele>1036.9191895</ele>
        <time>2012-01-22T11:41:17Z</time>
      </trkpt>
      <trkpt lat="45.3694" lon="5.79345">
        <ele>1034.996582</ele>
        <time>2012-01-22T11:41:20Z</time>
      </trkpt>
      <trkpt lat="45.36912" lon="5.79344">
        <ele>1030.1899414</ele>
        <time>2012-01-22T11:41:25Z</time>
      </trkpt>
      <trkpt lat="45.36871" lon="5.79358">
        <ele>1024.902832</ele>
        <time>2012-01-22T11:41:32Z</time>
      </trkpt>
      <trkpt lat="45.36854" lon="5.79365">
        <ele>1021.0576172</ele>
        <time>2012-01-22T11:41:36Z</time>
      </trkpt>
      <trkpt lat="45.36817" lon="5.79351">
        <ele>1014.8088379</ele>
        <time>2012-01-22T11:41:43Z</time>
      </trkpt>
      <trkpt lat="45.36792" lon="5.79327">
        <ele>1008.5603027</ele>
        <time>2012-01-22T11:41:48Z</time>
      </trkpt>
      <trkpt lat="45.36772" lon="5.7931">
        <ele>1005.1958008</ele>
        <time>2012-01-22T11:41:51Z</time>
      </trkpt>
      <trkpt lat="45.36759" lon="5.79325">
        <ele>1000.8696289</ele>
        <time>2012-01-22T11:41:54Z</time>
      </trkpt>
      <trkpt lat="45.36732" lon="5.79314">
        <ele>997.505127</ele>
        <time>2012-01-22T11:41:59Z</time>
      </trkpt>
      <trkpt lat="45.36712" lon="5.79317">
        <ele>990.7758789</ele>
        <time>2012-01-22T11:42:04Z</time>
      </trkpt>
      <trkpt lat="45.36702" lon="5.79322">
        <ele>987.4111328</ele>
        <time>2012-01-22T11:42:07Z</time>
      </trkpt>
      <trkpt lat="45.36681" lon="5.7933">
        <ele>983.565918</ele>
        <time>2012-01-22T11:42:11Z</time>
      </trkpt>
      <trkpt lat="45.36674" lon="5.79329">
        <ele>983.0852051</ele>
        <time>2012-01-22T11:42:12Z</time>
      </trkpt>
      <trkpt lat="45.3661" lon="5.7934">
        <ele>981.1628418</ele>
        <time>2012-01-22T11:42:29Z</time>
      </trkpt>
      <trkpt lat="45.36548" lon="5.79321">
        <ele>974.4335938</ele>
        <time>2012-01-22T11:42:40Z</time>
      </trkpt>
      <trkpt lat="45.3653" lon="5.79311">
        <ele>971.0688477</ele>
        <time>2012-01-22T11:42:43Z</time>
      </trkpt>
      <trkpt lat="45.36496" lon="5.79298">
        <ele>967.7041016</ele>
        <time>2012-01-22T11:43:05Z</time>
      </trkpt>
      <trkpt lat="45.36493" lon="5.7929">
        <ele>965.7817383</ele>
        <time>2012-01-22T11:44:53Z</time>
      </trkpt>
      <trkpt lat="45.36476" lon="5.79265">
        <ele>960.9750977</ele>
        <time>2012-01-22T11:45:05Z</time>
      </trkpt>
      <trkpt lat="45.36463" lon="5.79242">
        <ele>956.6491699</ele>
        <time>2012-01-22T11:45:09Z</time>
      </trkpt>
      <trkpt lat="45.36457" lon="5.79231">
        <ele>956.168457</ele>
        <time>2012-01-22T11:45:11Z</time>
      </trkpt>
      <trkpt lat="45.3643" lon="5.79219">
        <ele>951.3618164</ele>
        <time>2012-01-22T11:45:23Z</time>
      </trkpt>
      <trkpt lat="45.36416" lon="5.7922">
        <ele>946.5554199</ele>
        <time>2012-01-22T11:45:26Z</time>
      </trkpt>
      <trkpt lat="45.36406" lon="5.79218">
        <ele>946.074707</ele>
        <time>2012-01-22T11:45:28Z</time>
      </trkpt>
      <trkpt lat="45.36386" lon="5.79213">
        <ele>945.5939941</ele>
        <time>2012-01-22T11:45:35Z</time>
      </trkpt>
      <trkpt lat="45.36365" lon="5.79189">
        <ele>941.7487793</ele>
        <time>2012-01-22T11:45:41Z</time>
      </trkpt>
      <trkpt lat="45.36347" lon="5.79175">
        <ele>936.9418945</ele>
        <time>2012-01-22T11:45:46Z</time>
      </trkpt>
      <trkpt lat="45.36325" lon="5.79165">
        <ele>933.5773926</ele>
        <time>2012-01-22T11:45:51Z</time>
      </trkpt>
      <trkpt lat="45.36296" lon="5.79156">
        <ele>931.6547852</ele>
        <time>2012-01-22T11:46:02Z</time>
      </trkpt>
      <trkpt lat="45.36293" lon="5.79156">
        <ele>933.0966797</ele>
        <time>2012-01-22T11:46:57Z</time>
      </trkpt>
      <trkpt lat="45.36276" lon="5.79155">
        <ele>930.6936035</ele>
        <time>2012-01-22T11:47:57Z</time>
      </trkpt>
      <trkpt lat="45.36274" lon="5.79152">
        <ele>930.6936035</ele>
        <time>2012-01-22T11:47:59Z</time>
      </trkpt>
      <trkpt lat="45.36261" lon="5.79144">
        <ele>928.7709961</ele>
        <time>2012-01-22T11:48:42Z</time>
      </trkpt>
      <trkpt lat="45.36267" lon="5.79127">
        <ele>927.8095703</ele>
        <time>2012-01-22T11:49:57Z</time>
      </trkpt>
      <trkpt lat="45.36259" lon="5.79128">
        <ele>923.4836426</ele>
        <time>2012-01-22T11:50:00Z</time>
      </trkpt>
      <trkpt lat="45.36229" lon="5.79101">
        <ele>918.1962891</ele>
        <time>2012-01-22T11:50:05Z</time>
      </trkpt>
      <trkpt lat="45.36207" lon="5.79089">
        <ele>913.8703613</ele>
        <time>2012-01-22T11:50:08Z</time>
      </trkpt>
      <trkpt lat="45.36188" lon="5.79078">
        <ele>911.4672852</ele>
        <time>2012-01-22T11:50:11Z</time>
      </trkpt>
      <trkpt lat="45.36162" lon="5.79068">
        <ele>908.1027832</ele>
        <time>2012-01-22T11:50:15Z</time>
      </trkpt>
      <trkpt lat="45.36118" lon="5.79061">
        <ele>904.737793</ele>
        <time>2012-01-22T11:50:22Z</time>
      </trkpt>
      <trkpt lat="45.36101" lon="5.79054">
        <ele>902.3344727</ele>
        <time>2012-01-22T11:50:26Z</time>
      </trkpt>
      <trkpt lat="45.36077" lon="5.79049">
        <ele>898.0087891</ele>
        <time>2012-01-22T11:50:30Z</time>
      </trkpt>
      <trkpt lat="45.36065" lon="5.79039">
        <ele>894.644043</ele>
        <time>2012-01-22T11:50:32Z</time>
      </trkpt>
      <trkpt lat="45.3603" lon="5.79014">
        <ele>887.9147949</ele>
        <time>2012-01-22T11:50:37Z</time>
      </trkpt>
      <trkpt lat="45.36024" lon="5.79008">
        <ele>887.9147949</ele>
        <time>2012-01-22T11:50:38Z</time>
      </trkpt>
      <trkpt lat="45.3601" lon="5.78997">
        <ele>884.550293</ele>
        <time>2012-01-22T11:50:40Z</time>
      </trkpt>
      <trkpt lat="45.35973" lon="5.78964">
        <ele>876.8598633</ele>
        <time>2012-01-22T11:50:46Z</time>
      </trkpt>
      <trkpt lat="45.35944" lon="5.78932">
        <ele>872.0529785</ele>
        <time>2012-01-22T11:50:50Z</time>
      </trkpt>
      <trkpt lat="45.35937" lon="5.78926">
        <ele>872.0529785</ele>
        <time>2012-01-22T11:50:51Z</time>
      </trkpt>
      <trkpt lat="45.35922" lon="5.78918">
        <ele>868.6884766</ele>
        <time>2012-01-22T11:50:53Z</time>
      </trkpt>
      <trkpt lat="45.35901" lon="5.789">
        <ele>864.8432617</ele>
        <time>2012-01-22T11:50:57Z</time>
      </trkpt>
      <trkpt lat="45.35867" lon="5.78878">
        <ele>859.5559082</ele>
        <time>2012-01-22T11:51:02Z</time>
      </trkpt>
      <trkpt lat="45.35854" lon="5.78869">
        <ele>858.1140137</ele>
        <time>2012-01-22T11:51:04Z</time>
      </trkpt>
      <trkpt lat="45.35827" lon="5.78858">
        <ele>854.7492676</ele>
        <time>2012-01-22T11:51:08Z</time>
      </trkpt>
      <trkpt lat="45.3582" lon="5.78855">
        <ele>854.7492676</ele>
        <time>2012-01-22T11:51:09Z</time>
      </trkpt>
      <trkpt lat="45.35797" lon="5.78844">
        <ele>851.3847656</ele>
        <time>2012-01-22T11:51:13Z</time>
      </trkpt>
      <trkpt lat="45.35777" lon="5.78826">
        <ele>848.0202637</ele>
        <time>2012-01-22T11:51:16Z</time>
      </trkpt>
      <trkpt lat="45.35723" lon="5.78782">
        <ele>840.3295898</ele>
        <time>2012-01-22T11:51:24Z</time>
      </trkpt>
      <trkpt lat="45.35689" lon="5.7876">
        <ele>836.9648438</ele>
        <time>2012-01-22T11:51:28Z</time>
      </trkpt>
      <trkpt lat="45.35624" lon="5.78724">
        <ele>831.6777344</ele>
        <time>2012-01-22T11:51:37Z</time>
      </trkpt>
      <trkpt lat="45.35561" lon="5.78722">
        <ele>827.8322754</ele>
        <time>2012-01-22T11:51:47Z</time>
      </trkpt>
      <trkpt lat="45.35528" lon="5.78737">
        <ele>824.9484863</ele>
        <time>2012-01-22T11:52:01Z</time>
      </trkpt>
      <trkpt lat="45.35522" lon="5.78753">
        <ele>824.4677734</ele>
        <time>2012-01-22T11:52:11Z</time>
      </trkpt>
      <trkpt lat="45.35512" lon="5.78775">
        <ele>825.4289551</ele>
        <time>2012-01-22T11:52:50Z</time>
      </trkpt>
      <trkpt lat="45.35513" lon="5.78775">
        <ele>826.8710938</ele>
        <time>2012-01-22T11:54:01Z</time>
      </trkpt>
      <trkpt lat="45.35517" lon="5.78773">
        <ele>829.755127</ele>
        <time>2012-01-22T11:56:07Z</time>
      </trkpt>
      <trkpt lat="45.35522" lon="5.78775">
        <ele>832.6391602</ele>
        <time>2012-01-22T11:59:10Z</time>
      </trkpt>
      <trkpt lat="45.35517" lon="5.78767">
        <ele>825.4289551</ele>
        <time>2012-01-22T12:00:10Z</time>
      </trkpt>
      <trkpt lat="45.35518" lon="5.78775">
        <ele>833.1196289</ele>
        <time>2012-01-22T12:00:11Z</time>
      </trkpt>
      <trkpt lat="45.35519" lon="5.78775">
        <ele>835.0424805</ele>
        <time>2012-01-22T12:00:20Z</time>
      </trkpt>
    </trkseg>
  </trk>
</gpx>